sensor_id;sensor_type;location;lat;lon;timestamp;P1;durP1;ratioP1;P2;durP2;ratioP2
49730;SDS011;35622;52.008;5.426;2022-10-22T00:00:21;25.23;;;9.60;;
49730;SDS011;35622;52.008;5.426;2022-10-22T00:02:48;16.33;;;9.77;;
49730;SDS011;35622;52.008;5.426;2022-10-22T00:05:13;23.38;;;9.40;;
49730;SDS011;35622;52.008;5.426;2022-10-22T00:07:39;27.63;;;11.10;;
49730;SDS011;35622;52.008;5.426;2022-10-22T00:10:05;25.77;;;11.52;;
49730;SDS011;35622;52.008;5.426;2022-10-22T00:12:31;16.33;;;8.68;;
49730;SDS011;35622;52.008;5.426;2022-10-22T00:14:57;19.00;;;9.48;;
49730;SDS011;35622;52.008;5.426;2022-10-22T00:17:22;18.55;;;9.00;;
49730;SDS011;35622;52.008;5.426;2022-10-22T00:19:48;24.92;;;8.85;;
49730;SDS011;35622;52.008;5.426;2022-10-22T00:22:14;19.08;;;8.27;;
49730;SDS011;35622;52.008;5.426;2022-10-22T00:24:40;23.98;;;8.23;;
49730;SDS011;35622;52.008;5.426;2022-10-22T00:27:07;16.70;;;8.40;;
49730;SDS011;35622;52.008;5.426;2022-10-22T00:29:34;26.40;;;8.85;;
49730;SDS011;35622;52.008;5.426;2022-10-22T00:32:00;15.85;;;10.30;;
49730;SDS011;35622;52.008;5.426;2022-10-22T00:34:26;24.75;;;11.07;;
49730;SDS011;35622;52.008;5.426;2022-10-22T00:36:52;22.73;;;11.32;;
49730;SDS011;35622;52.008;5.426;2022-10-22T00:39:20;25.33;;;10.48;;
49730;SDS011;35622;52.008;5.426;2022-10-22T00:41:48;25.13;;;11.65;;
49730;SDS011;35622;52.008;5.426;2022-10-22T00:47:18;24.88;;;12.80;;
49730;SDS011;35622;52.008;5.426;2022-10-22T00:49:44;24.67;;;13.95;;
49730;SDS011;35622;52.008;5.426;2022-10-22T00:52:11;20.73;;;13.15;;
49730;SDS011;35622;52.008;5.426;2022-10-22T00:54:38;26.88;;;12.65;;
49730;SDS011;35622;52.008;5.426;2022-10-22T00:57:05;19.77;;;11.70;;
49730;SDS011;35622;52.008;5.426;2022-10-22T00:59:30;23.98;;;11.95;;
49730;SDS011;35622;52.008;5.426;2022-10-22T01:01:57;19.77;;;11.57;;
49730;SDS011;35622;52.008;5.426;2022-10-22T01:04:22;20.92;;;10.93;;
49730;SDS011;35622;52.008;5.426;2022-10-22T01:06:48;17.65;;;10.85;;
49730;SDS011;35622;52.008;5.426;2022-10-22T01:22:41;24.10;;;11.63;;
49730;SDS011;35622;52.008;5.426;2022-10-22T01:25:17;32.45;;;12.07;;
49730;SDS011;35622;52.008;5.426;2022-10-22T01:31:23;24.73;;;11.60;;
49730;SDS011;35622;52.008;5.426;2022-10-22T01:33:51;24.77;;;11.98;;
49730;SDS011;35622;52.008;5.426;2022-10-22T01:36:18;20.73;;;11.77;;
49730;SDS011;35622;52.008;5.426;2022-10-22T01:38:45;30.23;;;12.65;;
49730;SDS011;35622;52.008;5.426;2022-10-22T01:41:11;17.08;;;9.70;;
49730;SDS011;35622;52.008;5.426;2022-10-22T01:43:37;23.15;;;11.23;;
49730;SDS011;35622;52.008;5.426;2022-10-22T01:46:04;26.75;;;11.25;;
49730;SDS011;35622;52.008;5.426;2022-10-22T01:48:44;26.38;;;10.93;;
49730;SDS011;35622;52.008;5.426;2022-10-22T01:51:37;26.52;;;9.93;;
49730;SDS011;35622;52.008;5.426;2022-10-22T01:57:05;21.25;;;10.77;;
49730;SDS011;35622;52.008;5.426;2022-10-22T02:02:32;16.00;;;9.52;;
49730;SDS011;35622;52.008;5.426;2022-10-22T02:05:12;16.23;;;10.35;;
49730;SDS011;35622;52.008;5.426;2022-10-22T02:07:53;14.70;;;10.32;;
49730;SDS011;35622;52.008;5.426;2022-10-22T02:10:26;16.40;;;10.13;;
49730;SDS011;35622;52.008;5.426;2022-10-22T02:12:54;20.23;;;11.48;;
49730;SDS011;35622;52.008;5.426;2022-10-22T02:15:21;21.63;;;11.35;;
49730;SDS011;35622;52.008;5.426;2022-10-22T02:17:49;19.48;;;10.27;;
49730;SDS011;35622;52.008;5.426;2022-10-22T02:20:20;19.92;;;11.80;;
49730;SDS011;35622;52.008;5.426;2022-10-22T02:22:50;17.50;;;10.52;;
49730;SDS011;35622;52.008;5.426;2022-10-22T02:25:16;24.13;;;11.18;;
49730;SDS011;35622;52.008;5.426;2022-10-22T02:27:42;18.10;;;9.18;;
49730;SDS011;35622;52.008;5.426;2022-10-22T02:30:13;18.40;;;10.38;;
49730;SDS011;35622;52.008;5.426;2022-10-22T02:32:43;18.45;;;10.13;;
49730;SDS011;35622;52.008;5.426;2022-10-22T02:35:20;24.30;;;11.32;;
49730;SDS011;35622;52.008;5.426;2022-10-22T02:37:48;19.38;;;9.40;;
49730;SDS011;35622;52.008;5.426;2022-10-22T02:40:15;22.40;;;10.13;;
49730;SDS011;35622;52.008;5.426;2022-10-22T02:42:41;24.02;;;10.80;;
49730;SDS011;35622;52.008;5.426;2022-10-22T02:45:07;18.30;;;10.55;;
49730;SDS011;35622;52.008;5.426;2022-10-22T02:47:34;23.35;;;10.90;;
49730;SDS011;35622;52.008;5.426;2022-10-22T02:49:59;20.98;;;10.40;;
49730;SDS011;35622;52.008;5.426;2022-10-22T02:52:25;64.25;;;11.52;;
49730;SDS011;35622;52.008;5.426;2022-10-22T02:54:50;18.48;;;9.63;;
49730;SDS011;35622;52.008;5.426;2022-10-22T02:57:16;18.60;;;10.75;;
49730;SDS011;35622;52.008;5.426;2022-10-22T02:59:41;21.75;;;9.75;;
49730;SDS011;35622;52.008;5.426;2022-10-22T03:02:07;31.88;;;10.32;;
49730;SDS011;35622;52.008;5.426;2022-10-22T03:04:32;22.02;;;10.25;;
49730;SDS011;35622;52.008;5.426;2022-10-22T03:06:58;22.42;;;10.25;;
49730;SDS011;35622;52.008;5.426;2022-10-22T03:09:24;22.50;;;9.20;;
49730;SDS011;35622;52.008;5.426;2022-10-22T03:11:49;23.52;;;8.90;;
49730;SDS011;35622;52.008;5.426;2022-10-22T03:14:15;21.08;;;9.10;;
49730;SDS011;35622;52.008;5.426;2022-10-22T03:16:41;22.98;;;10.23;;
49730;SDS011;35622;52.008;5.426;2022-10-22T03:19:06;26.30;;;10.38;;
49730;SDS011;35622;52.008;5.426;2022-10-22T03:24:12;20.60;;;9.30;;
49730;SDS011;35622;52.008;5.426;2022-10-22T03:26:41;20.38;;;8.80;;
49730;SDS011;35622;52.008;5.426;2022-10-22T03:29:10;16.20;;;8.65;;
49730;SDS011;35622;52.008;5.426;2022-10-22T03:31:37;15.80;;;8.38;;
49730;SDS011;35622;52.008;5.426;2022-10-22T03:34:02;20.83;;;8.90;;
49730;SDS011;35622;52.008;5.426;2022-10-22T03:36:28;17.83;;;8.75;;
49730;SDS011;35622;52.008;5.426;2022-10-22T03:38:54;31.88;;;10.00;;
49730;SDS011;35622;52.008;5.426;2022-10-22T03:41:20;30.73;;;9.48;;
49730;SDS011;35622;52.008;5.426;2022-10-22T03:43:46;30.95;;;10.00;;
49730;SDS011;35622;52.008;5.426;2022-10-22T03:46:15;19.60;;;8.35;;
49730;SDS011;35622;52.008;5.426;2022-10-22T03:48:41;20.63;;;8.38;;
49730;SDS011;35622;52.008;5.426;2022-10-22T03:51:06;25.55;;;8.77;;
49730;SDS011;35622;52.008;5.426;2022-10-22T03:53:32;18.27;;;8.98;;
49730;SDS011;35622;52.008;5.426;2022-10-22T03:55:57;18.63;;;8.45;;
49730;SDS011;35622;52.008;5.426;2022-10-22T03:58:23;24.40;;;8.02;;
49730;SDS011;35622;52.008;5.426;2022-10-22T04:00:48;16.75;;;8.60;;
49730;SDS011;35622;52.008;5.426;2022-10-22T04:03:14;16.77;;;8.63;;
49730;SDS011;35622;52.008;5.426;2022-10-22T04:05:40;14.68;;;8.35;;
49730;SDS011;35622;52.008;5.426;2022-10-22T04:08:05;21.00;;;8.85;;
49730;SDS011;35622;52.008;5.426;2022-10-22T04:10:31;23.02;;;8.93;;
49730;SDS011;35622;52.008;5.426;2022-10-22T04:12:56;14.75;;;8.55;;
49730;SDS011;35622;52.008;5.426;2022-10-22T04:15:22;14.38;;;8.35;;
49730;SDS011;35622;52.008;5.426;2022-10-22T04:17:50;36.90;;;8.45;;
49730;SDS011;35622;52.008;5.426;2022-10-22T04:20:16;15.02;;;8.13;;
49730;SDS011;35622;52.008;5.426;2022-10-22T04:22:41;18.58;;;8.43;;
49730;SDS011;35622;52.008;5.426;2022-10-22T04:25:07;17.42;;;8.05;;
49730;SDS011;35622;52.008;5.426;2022-10-22T04:27:33;22.92;;;8.88;;
49730;SDS011;35622;52.008;5.426;2022-10-22T04:29:59;15.90;;;7.95;;
49730;SDS011;35622;52.008;5.426;2022-10-22T04:32:26;22.38;;;7.80;;
49730;SDS011;35622;52.008;5.426;2022-10-22T04:34:52;20.02;;;7.32;;
49730;SDS011;35622;52.008;5.426;2022-10-22T04:37:17;17.63;;;7.40;;
49730;SDS011;35622;52.008;5.426;2022-10-22T04:39:43;18.63;;;7.45;;
49730;SDS011;35622;52.008;5.426;2022-10-22T04:42:09;38.30;;;8.05;;
49730;SDS011;35622;52.008;5.426;2022-10-22T04:44:35;16.13;;;6.82;;
49730;SDS011;35622;52.008;5.426;2022-10-22T04:47:01;14.10;;;6.95;;
49730;SDS011;35622;52.008;5.426;2022-10-22T04:49:26;158.60;;;12.25;;
49730;SDS011;35622;52.008;5.426;2022-10-22T04:51:52;14.63;;;7.10;;
49730;SDS011;35622;52.008;5.426;2022-10-22T04:54:17;15.98;;;7.35;;
49730;SDS011;35622;52.008;5.426;2022-10-22T04:56:43;18.33;;;6.85;;
49730;SDS011;35622;52.008;5.426;2022-10-22T04:59:09;15.50;;;7.38;;
49730;SDS011;35622;52.008;5.426;2022-10-22T05:01:45;43.95;;;8.35;;
49730;SDS011;35622;52.008;5.426;2022-10-22T05:04:12;28.30;;;7.68;;
49730;SDS011;35622;52.008;5.426;2022-10-22T05:06:40;15.90;;;7.30;;
49730;SDS011;35622;52.008;5.426;2022-10-22T05:09:06;15.25;;;7.90;;
49730;SDS011;35622;52.008;5.426;2022-10-22T05:11:36;12.57;;;6.97;;
49730;SDS011;35622;52.008;5.426;2022-10-22T05:14:03;23.92;;;7.13;;
49730;SDS011;35622;52.008;5.426;2022-10-22T05:16:30;16.25;;;6.80;;
49730;SDS011;35622;52.008;5.426;2022-10-22T05:18:58;17.63;;;5.75;;
49730;SDS011;35622;52.008;5.426;2022-10-22T05:21:24;20.58;;;7.22;;
49730;SDS011;35622;52.008;5.426;2022-10-22T05:23:50;13.43;;;7.13;;
49730;SDS011;35622;52.008;5.426;2022-10-22T05:26:19;14.30;;;7.20;;
49730;SDS011;35622;52.008;5.426;2022-10-22T05:28:46;15.95;;;6.95;;
49730;SDS011;35622;52.008;5.426;2022-10-22T05:31:12;11.95;;;6.90;;
49730;SDS011;35622;52.008;5.426;2022-10-22T05:33:39;22.95;;;8.57;;
49730;SDS011;35622;52.008;5.426;2022-10-22T05:36:06;15.05;;;7.45;;
49730;SDS011;35622;52.008;5.426;2022-10-22T05:38:33;16.60;;;6.78;;
49730;SDS011;35622;52.008;5.426;2022-10-22T05:43:26;17.13;;;7.85;;
49730;SDS011;35622;52.008;5.426;2022-10-22T05:45:51;15.15;;;7.50;;
49730;SDS011;35622;52.008;5.426;2022-10-22T05:48:17;17.58;;;7.70;;
49730;SDS011;35622;52.008;5.426;2022-10-22T05:50:43;16.65;;;6.85;;
49730;SDS011;35622;52.008;5.426;2022-10-22T05:53:10;18.40;;;6.80;;
49730;SDS011;35622;52.008;5.426;2022-10-22T05:55:36;14.35;;;7.05;;
49730;SDS011;35622;52.008;5.426;2022-10-22T05:58:04;15.60;;;8.25;;
49730;SDS011;35622;52.008;5.426;2022-10-22T06:00:30;15.95;;;7.78;;
49730;SDS011;35622;52.008;5.426;2022-10-22T06:05:25;17.45;;;7.95;;
49730;SDS011;35622;52.008;5.426;2022-10-22T06:07:51;11.38;;;6.10;;
49730;SDS011;35622;52.008;5.426;2022-10-22T06:10:18;12.05;;;6.57;;
49730;SDS011;35622;52.008;5.426;2022-10-22T06:12:45;13.18;;;7.55;;
49730;SDS011;35622;52.008;5.426;2022-10-22T06:15:11;19.80;;;7.65;;
49730;SDS011;35622;52.008;5.426;2022-10-22T06:17:38;18.90;;;7.25;;
49730;SDS011;35622;52.008;5.426;2022-10-22T06:20:03;26.20;;;8.35;;
49730;SDS011;35622;52.008;5.426;2022-10-22T06:22:29;13.35;;;7.10;;
49730;SDS011;35622;52.008;5.426;2022-10-22T06:24:55;20.85;;;7.75;;
49730;SDS011;35622;52.008;5.426;2022-10-22T06:27:20;20.20;;;7.78;;
49730;SDS011;35622;52.008;5.426;2022-10-22T06:29:46;16.70;;;7.13;;
49730;SDS011;35622;52.008;5.426;2022-10-22T06:32:12;16.25;;;6.50;;
49730;SDS011;35622;52.008;5.426;2022-10-22T06:34:38;19.45;;;7.45;;
49730;SDS011;35622;52.008;5.426;2022-10-22T06:37:03;17.95;;;7.03;;
49730;SDS011;35622;52.008;5.426;2022-10-22T06:39:29;22.48;;;7.65;;
49730;SDS011;35622;52.008;5.426;2022-10-22T06:41:54;14.68;;;6.57;;
49730;SDS011;35622;52.008;5.426;2022-10-22T06:44:20;16.35;;;6.85;;
49730;SDS011;35622;52.008;5.426;2022-10-22T06:46:48;14.10;;;6.65;;
49730;SDS011;35622;52.008;5.426;2022-10-22T06:49:16;13.70;;;6.25;;
49730;SDS011;35622;52.008;5.426;2022-10-22T06:51:42;14.25;;;6.53;;
49730;SDS011;35622;52.008;5.426;2022-10-22T06:54:08;18.15;;;6.65;;
49730;SDS011;35622;52.008;5.426;2022-10-22T06:56:34;32.67;;;7.05;;
49730;SDS011;35622;52.008;5.426;2022-10-22T06:59:00;17.85;;;6.50;;
49730;SDS011;35622;52.008;5.426;2022-10-22T07:01:27;14.80;;;5.95;;
49730;SDS011;35622;52.008;5.426;2022-10-22T07:03:55;14.90;;;6.50;;
49730;SDS011;35622;52.008;5.426;2022-10-22T07:06:21;21.33;;;6.18;;
49730;SDS011;35622;52.008;5.426;2022-10-22T07:08:48;16.90;;;5.55;;
49730;SDS011;35622;52.008;5.426;2022-10-22T07:11:15;16.23;;;6.00;;
49730;SDS011;35622;52.008;5.426;2022-10-22T07:13:46;24.02;;;6.60;;
49730;SDS011;35622;52.008;5.426;2022-10-22T07:16:12;16.00;;;5.63;;
49730;SDS011;35622;52.008;5.426;2022-10-22T07:18:38;18.90;;;6.68;;
49730;SDS011;35622;52.008;5.426;2022-10-22T07:21:04;15.35;;;5.45;;
49730;SDS011;35622;52.008;5.426;2022-10-22T07:23:31;14.23;;;5.68;;
49730;SDS011;35622;52.008;5.426;2022-10-22T07:25:57;20.70;;;6.07;;
49730;SDS011;35622;52.008;5.426;2022-10-22T07:28:23;18.75;;;6.13;;
49730;SDS011;35622;52.008;5.426;2022-10-22T07:30:49;18.15;;;5.97;;
49730;SDS011;35622;52.008;5.426;2022-10-22T07:33:15;16.75;;;5.60;;
49730;SDS011;35622;52.008;5.426;2022-10-22T07:35:41;14.10;;;4.88;;
49730;SDS011;35622;52.008;5.426;2022-10-22T07:38:07;15.15;;;5.55;;
49730;SDS011;35622;52.008;5.426;2022-10-22T07:40:33;14.48;;;5.78;;
49730;SDS011;35622;52.008;5.426;2022-10-22T07:42:59;9.88;;;4.63;;
49730;SDS011;35622;52.008;5.426;2022-10-22T07:45:25;16.33;;;6.13;;
49730;SDS011;35622;52.008;5.426;2022-10-22T07:47:50;12.77;;;4.53;;
49730;SDS011;35622;52.008;5.426;2022-10-22T07:50:16;12.07;;;4.35;;
49730;SDS011;35622;52.008;5.426;2022-10-22T07:52:42;13.75;;;4.88;;
49730;SDS011;35622;52.008;5.426;2022-10-22T07:55:08;9.20;;;4.15;;
49730;SDS011;35622;52.008;5.426;2022-10-22T07:57:33;15.88;;;4.97;;
49730;SDS011;35622;52.008;5.426;2022-10-22T08:00:01;15.48;;;4.75;;
49730;SDS011;35622;52.008;5.426;2022-10-22T08:02:31;13.80;;;4.78;;
49730;SDS011;35622;52.008;5.426;2022-10-22T08:04:57;16.85;;;4.03;;
49730;SDS011;35622;52.008;5.426;2022-10-22T08:07:23;13.07;;;3.30;;
49730;SDS011;35622;52.008;5.426;2022-10-22T08:09:49;14.00;;;3.70;;
49730;SDS011;35622;52.008;5.426;2022-10-22T08:12:14;11.73;;;3.40;;
49730;SDS011;35622;52.008;5.426;2022-10-22T08:14:40;13.00;;;3.65;;
49730;SDS011;35622;52.008;5.426;2022-10-22T08:17:06;11.40;;;3.67;;
49730;SDS011;35622;52.008;5.426;2022-10-22T08:19:31;11.48;;;3.47;;
49730;SDS011;35622;52.008;5.426;2022-10-22T08:21:57;15.32;;;3.90;;
49730;SDS011;35622;52.008;5.426;2022-10-22T08:24:23;14.45;;;3.63;;
49730;SDS011;35622;52.008;5.426;2022-10-22T08:26:50;9.45;;;3.20;;
49730;SDS011;35622;52.008;5.426;2022-10-22T08:29:18;12.93;;;3.13;;
49730;SDS011;35622;52.008;5.426;2022-10-22T08:31:45;12.15;;;3.58;;
49730;SDS011;35622;52.008;5.426;2022-10-22T08:34:11;17.38;;;3.50;;
49730;SDS011;35622;52.008;5.426;2022-10-22T08:36:36;13.98;;;3.10;;
49730;SDS011;35622;52.008;5.426;2022-10-22T08:39:02;11.88;;;3.22;;
49730;SDS011;35622;52.008;5.426;2022-10-22T08:41:27;20.42;;;3.67;;
49730;SDS011;35622;52.008;5.426;2022-10-22T08:49:28;11.32;;;2.90;;
49730;SDS011;35622;52.008;5.426;2022-10-22T08:51:58;11.95;;;3.15;;
49730;SDS011;35622;52.008;5.426;2022-10-22T08:59:46;14.75;;;3.63;;
49730;SDS011;35622;52.008;5.426;2022-10-22T09:05:02;11.38;;;3.15;;
49730;SDS011;35622;52.008;5.426;2022-10-22T09:07:51;13.80;;;3.17;;
49730;SDS011;35622;52.008;5.426;2022-10-22T09:10:21;13.43;;;3.60;;
49730;SDS011;35622;52.008;5.426;2022-10-22T09:12:51;13.93;;;3.33;;
49730;SDS011;35622;52.008;5.426;2022-10-22T09:15:17;15.52;;;2.83;;
49730;SDS011;35622;52.008;5.426;2022-10-22T09:17:49;13.98;;;3.42;;
49730;SDS011;35622;52.008;5.426;2022-10-22T09:26:07;14.55;;;3.08;;
49730;SDS011;35622;52.008;5.426;2022-10-22T09:28:37;14.15;;;2.70;;
49730;SDS011;35622;52.008;5.426;2022-10-22T09:31:08;8.45;;;2.70;;
49730;SDS011;35622;52.008;5.426;2022-10-22T09:33:35;13.80;;;3.20;;
49730;SDS011;35622;52.008;5.426;2022-10-22T09:36:02;9.07;;;2.70;;
49730;SDS011;35622;52.008;5.426;2022-10-22T09:38:31;16.30;;;3.30;;
49730;SDS011;35622;52.008;5.426;2022-10-22T09:41:18;16.95;;;3.10;;
49730;SDS011;35622;52.008;5.426;2022-10-22T09:43:47;11.85;;;3.00;;
49730;SDS011;35622;52.008;5.426;2022-10-22T09:46:15;17.13;;;3.35;;
49730;SDS011;35622;52.008;5.426;2022-10-22T09:48:51;13.68;;;2.42;;
49730;SDS011;35622;52.008;5.426;2022-10-22T09:51:54;16.83;;;2.67;;
49730;SDS011;35622;52.008;5.426;2022-10-22T09:54:25;14.25;;;2.65;;
49730;SDS011;35622;52.008;5.426;2022-10-22T09:57:05;11.70;;;2.70;;
49730;SDS011;35622;52.008;5.426;2022-10-22T09:59:41;13.15;;;2.17;;
49730;SDS011;35622;52.008;5.426;2022-10-22T10:02:14;18.77;;;3.20;;
49730;SDS011;35622;52.008;5.426;2022-10-22T10:04:49;11.07;;;2.38;;
49730;SDS011;35622;52.008;5.426;2022-10-22T10:09:47;8.18;;;2.13;;
49730;SDS011;35622;52.008;5.426;2022-10-22T10:17:25;12.63;;;2.50;;
49730;SDS011;35622;52.008;5.426;2022-10-22T10:28:00;10.50;;;2.42;;
49730;SDS011;35622;52.008;5.426;2022-10-22T10:30:31;8.30;;;1.98;;
49730;SDS011;35622;52.008;5.426;2022-10-22T10:35:37;11.10;;;2.55;;
49730;SDS011;35622;52.008;5.426;2022-10-22T10:46:33;9.68;;;2.25;;
49730;SDS011;35622;52.008;5.426;2022-10-22T10:49:02;8.60;;;2.20;;
49730;SDS011;35622;52.008;5.426;2022-10-22T10:51:52;11.70;;;1.95;;
49730;SDS011;35622;52.008;5.426;2022-10-22T10:57:01;10.75;;;2.00;;
49730;SDS011;35622;52.008;5.426;2022-10-22T11:02:39;10.38;;;1.77;;
49730;SDS011;35622;52.008;5.426;2022-10-22T11:05:33;10.40;;;1.95;;
49730;SDS011;35622;52.008;5.426;2022-10-22T11:08:08;8.27;;;1.83;;
49730;SDS011;35622;52.008;5.426;2022-10-22T11:10:50;10.95;;;1.80;;
49730;SDS011;35622;52.008;5.426;2022-10-22T11:13:43;9.52;;;1.48;;
49730;SDS011;35622;52.008;5.426;2022-10-22T11:19:24;7.63;;;1.25;;
49730;SDS011;35622;52.008;5.426;2022-10-22T11:22:02;10.43;;;1.90;;
49730;SDS011;35622;52.008;5.426;2022-10-22T11:24:58;10.10;;;2.05;;
49730;SDS011;35622;52.008;5.426;2022-10-22T11:30:27;17.17;;;1.75;;
49730;SDS011;35622;52.008;5.426;2022-10-22T11:32:59;12.13;;;1.45;;
49730;SDS011;35622;52.008;5.426;2022-10-22T11:35:30;11.45;;;1.70;;
49730;SDS011;35622;52.008;5.426;2022-10-22T11:37:58;10.02;;;1.45;;
49730;SDS011;35622;52.008;5.426;2022-10-22T11:42:57;12.13;;;2.08;;
49730;SDS011;35622;52.008;5.426;2022-10-22T11:45:29;8.75;;;1.77;;
49730;SDS011;35622;52.008;5.426;2022-10-22T11:50:51;16.63;;;2.05;;
49730;SDS011;35622;52.008;5.426;2022-10-22T11:55:50;12.60;;;1.83;;
49730;SDS011;35622;52.008;5.426;2022-10-22T12:00:52;11.88;;;1.60;;
49730;SDS011;35622;52.008;5.426;2022-10-22T12:03:40;10.20;;;2.10;;
49730;SDS011;35622;52.008;5.426;2022-10-22T12:08:42;14.75;;;1.83;;
49730;SDS011;35622;52.008;5.426;2022-10-22T12:16:27;14.20;;;1.60;;
49730;SDS011;35622;52.008;5.426;2022-10-22T12:19:00;12.02;;;2.03;;
49730;SDS011;35622;52.008;5.426;2022-10-22T12:21:31;16.05;;;1.98;;
49730;SDS011;35622;52.008;5.426;2022-10-22T12:23:58;18.35;;;2.22;;
49730;SDS011;35622;52.008;5.426;2022-10-22T12:26:26;15.75;;;2.17;;
49730;SDS011;35622;52.008;5.426;2022-10-22T12:29:00;16.45;;;1.90;;
49730;SDS011;35622;52.008;5.426;2022-10-22T12:31:34;15.00;;;2.10;;
49730;SDS011;35622;52.008;5.426;2022-10-22T12:34:01;11.52;;;2.10;;
49730;SDS011;35622;52.008;5.426;2022-10-22T12:36:35;15.95;;;2.35;;
49730;SDS011;35622;52.008;5.426;2022-10-22T12:39:09;14.70;;;2.47;;
49730;SDS011;35622;52.008;5.426;2022-10-22T12:41:38;15.02;;;2.33;;
49730;SDS011;35622;52.008;5.426;2022-10-22T12:44:04;9.90;;;1.92;;
49730;SDS011;35622;52.008;5.426;2022-10-22T12:46:33;16.00;;;2.83;;
49730;SDS011;35622;52.008;5.426;2022-10-22T12:49:07;21.05;;;2.03;;
49730;SDS011;35622;52.008;5.426;2022-10-22T12:51:44;11.93;;;2.10;;
49730;SDS011;35622;52.008;5.426;2022-10-22T12:54:22;13.63;;;2.78;;
49730;SDS011;35622;52.008;5.426;2022-10-22T12:56:48;17.30;;;2.53;;
49730;SDS011;35622;52.008;5.426;2022-10-22T12:59:17;19.55;;;2.83;;
49730;SDS011;35622;52.008;5.426;2022-10-22T13:01:48;20.63;;;3.20;;
49730;SDS011;35622;52.008;5.426;2022-10-22T13:06:44;15.95;;;2.72;;
49730;SDS011;35622;52.008;5.426;2022-10-22T13:09:13;13.23;;;2.58;;
49730;SDS011;35622;52.008;5.426;2022-10-22T13:11:52;13.90;;;3.00;;
49730;SDS011;35622;52.008;5.426;2022-10-22T13:14:26;12.82;;;2.97;;
49730;SDS011;35622;52.008;5.426;2022-10-22T13:25:16;15.57;;;3.33;;
49730;SDS011;35622;52.008;5.426;2022-10-22T13:27:54;18.40;;;3.70;;
49730;SDS011;35622;52.008;5.426;2022-10-22T13:35:26;13.90;;;3.05;;
49730;SDS011;35622;52.008;5.426;2022-10-22T13:37:56;17.42;;;3.33;;
49730;SDS011;35622;52.008;5.426;2022-10-22T13:40:21;16.55;;;3.40;;
49730;SDS011;35622;52.008;5.426;2022-10-22T13:42:47;11.32;;;3.03;;
49730;SDS011;35622;52.008;5.426;2022-10-22T13:45:13;20.85;;;3.15;;
49730;SDS011;35622;52.008;5.426;2022-10-22T13:47:39;11.57;;;3.20;;
49730;SDS011;35622;52.008;5.426;2022-10-22T13:50:10;15.63;;;3.67;;
49730;SDS011;35622;52.008;5.426;2022-10-22T13:52:39;17.42;;;3.85;;
49730;SDS011;35622;52.008;5.426;2022-10-22T13:55:20;13.95;;;3.25;;
49730;SDS011;35622;52.008;5.426;2022-10-22T13:57:49;15.30;;;2.80;;
49730;SDS011;35622;52.008;5.426;2022-10-22T14:00:17;16.02;;;3.58;;
49730;SDS011;35622;52.008;5.426;2022-10-22T14:02:45;19.02;;;3.60;;
49730;SDS011;35622;52.008;5.426;2022-10-22T14:05:13;10.77;;;2.78;;
49730;SDS011;35622;52.008;5.426;2022-10-22T14:07:40;17.17;;;3.28;;
49730;SDS011;35622;52.008;5.426;2022-10-22T14:10:16;19.02;;;4.47;;
49730;SDS011;35622;52.008;5.426;2022-10-22T14:12:42;18.17;;;3.40;;
49730;SDS011;35622;52.008;5.426;2022-10-22T14:15:09;15.98;;;3.47;;
49730;SDS011;35622;52.008;5.426;2022-10-22T14:17:36;18.17;;;3.15;;
49730;SDS011;35622;52.008;5.426;2022-10-22T14:20:03;12.80;;;2.40;;
49730;SDS011;35622;52.008;5.426;2022-10-22T14:22:29;17.80;;;3.10;;
49730;SDS011;35622;52.008;5.426;2022-10-22T14:24:54;16.48;;;2.97;;
49730;SDS011;35622;52.008;5.426;2022-10-22T14:27:20;18.88;;;2.75;;
49730;SDS011;35622;52.008;5.426;2022-10-22T14:29:46;17.33;;;2.65;;
49730;SDS011;35622;52.008;5.426;2022-10-22T14:32:12;12.63;;;2.83;;
49730;SDS011;35622;52.008;5.426;2022-10-22T14:34:40;18.63;;;3.55;;
49730;SDS011;35622;52.008;5.426;2022-10-22T14:37:16;16.65;;;2.80;;
49730;SDS011;35622;52.008;5.426;2022-10-22T14:39:43;11.48;;;2.20;;
49730;SDS011;35622;52.008;5.426;2022-10-22T14:42:11;17.27;;;3.15;;
49730;SDS011;35622;52.008;5.426;2022-10-22T14:44:38;23.20;;;3.28;;
49730;SDS011;35622;52.008;5.426;2022-10-22T14:47:04;18.80;;;3.80;;
49730;SDS011;35622;52.008;5.426;2022-10-22T14:49:30;13.70;;;2.75;;
49730;SDS011;35622;52.008;5.426;2022-10-22T14:51:55;15.07;;;2.60;;
49730;SDS011;35622;52.008;5.426;2022-10-22T14:54:21;21.23;;;3.17;;
49730;SDS011;35622;52.008;5.426;2022-10-22T14:56:46;20.27;;;3.25;;
49730;SDS011;35622;52.008;5.426;2022-10-22T14:59:12;18.10;;;2.85;;
49730;SDS011;35622;52.008;5.426;2022-10-22T15:01:37;15.98;;;3.10;;
49730;SDS011;35622;52.008;5.426;2022-10-22T15:04:03;17.08;;;2.53;;
49730;SDS011;35622;52.008;5.426;2022-10-22T15:06:29;19.33;;;5.45;;
49730;SDS011;35622;52.008;5.426;2022-10-22T15:08:54;13.15;;;2.78;;
49730;SDS011;35622;52.008;5.426;2022-10-22T15:11:20;17.98;;;2.80;;
49730;SDS011;35622;52.008;5.426;2022-10-22T15:13:46;17.77;;;3.55;;
49730;SDS011;35622;52.008;5.426;2022-10-22T15:16:12;14.93;;;2.97;;
49730;SDS011;35622;52.008;5.426;2022-10-22T15:18:40;15.13;;;2.92;;
49730;SDS011;35622;52.008;5.426;2022-10-22T15:21:16;16.38;;;3.15;;
49730;SDS011;35622;52.008;5.426;2022-10-22T15:23:42;15.32;;;2.63;;
49730;SDS011;35622;52.008;5.426;2022-10-22T15:26:08;17.58;;;2.60;;
49730;SDS011;35622;52.008;5.426;2022-10-22T15:28:36;17.40;;;3.47;;
49730;SDS011;35622;52.008;5.426;2022-10-22T15:31:03;17.70;;;3.00;;
49730;SDS011;35622;52.008;5.426;2022-10-22T15:33:29;12.45;;;2.63;;
49730;SDS011;35622;52.008;5.426;2022-10-22T15:35:55;12.00;;;2.88;;
49730;SDS011;35622;52.008;5.426;2022-10-22T15:38:22;15.25;;;2.80;;
49730;SDS011;35622;52.008;5.426;2022-10-22T15:41:03;17.67;;;3.70;;
49730;SDS011;35622;52.008;5.426;2022-10-22T15:43:30;15.73;;;2.90;;
49730;SDS011;35622;52.008;5.426;2022-10-22T15:46:09;14.57;;;2.90;;
49730;SDS011;35622;52.008;5.426;2022-10-22T15:48:40;12.25;;;3.13;;
49730;SDS011;35622;52.008;5.426;2022-10-22T15:51:07;17.45;;;3.22;;
49730;SDS011;35622;52.008;5.426;2022-10-22T15:53:35;12.15;;;2.80;;
49730;SDS011;35622;52.008;5.426;2022-10-22T15:56:00;13.00;;;2.72;;
49730;SDS011;35622;52.008;5.426;2022-10-22T15:58:26;17.15;;;3.08;;
49730;SDS011;35622;52.008;5.426;2022-10-22T16:00:51;14.18;;;3.70;;
49730;SDS011;35622;52.008;5.426;2022-10-22T16:03:17;12.38;;;3.47;;
49730;SDS011;35622;52.008;5.426;2022-10-22T16:05:50;15.30;;;3.00;;
49730;SDS011;35622;52.008;5.426;2022-10-22T16:08:18;16.77;;;3.50;;
49730;SDS011;35622;52.008;5.426;2022-10-22T16:10:44;15.65;;;3.10;;
49730;SDS011;35622;52.008;5.426;2022-10-22T16:13:12;11.25;;;3.00;;
49730;SDS011;35622;52.008;5.426;2022-10-22T16:15:38;13.48;;;2.85;;
49730;SDS011;35622;52.008;5.426;2022-10-22T16:18:03;16.35;;;3.45;;
49730;SDS011;35622;52.008;5.426;2022-10-22T16:20:29;14.75;;;3.35;;
49730;SDS011;35622;52.008;5.426;2022-10-22T16:22:54;11.63;;;3.28;;
49730;SDS011;35622;52.008;5.426;2022-10-22T16:25:20;12.02;;;2.97;;
49730;SDS011;35622;52.008;5.426;2022-10-22T16:27:49;18.63;;;3.05;;
49730;SDS011;35622;52.008;5.426;2022-10-22T16:30:15;9.85;;;2.92;;
49730;SDS011;35622;52.008;5.426;2022-10-22T16:32:41;12.18;;;3.03;;
49730;SDS011;35622;52.008;5.426;2022-10-22T16:35:06;14.27;;;3.00;;
49730;SDS011;35622;52.008;5.426;2022-10-22T16:37:32;14.68;;;3.72;;
49730;SDS011;35622;52.008;5.426;2022-10-22T16:39:58;14.45;;;3.75;;
49730;SDS011;35622;52.008;5.426;2022-10-22T16:42:24;11.68;;;3.17;;
49730;SDS011;35622;52.008;5.426;2022-10-22T16:44:49;12.35;;;3.78;;